createdAt,value
2023-06-30T00:00:21.567Z,99.80
2023-06-30T00:01:22.036Z,99.60
2023-06-30T00:02:21.970Z,99.40
2023-06-30T00:03:21.872Z,99.51
2023-06-30T00:04:21.754Z,99.51
2023-06-30T00:05:21.601Z,99.51
2023-06-30T00:06:21.501Z,99.51
2023-06-30T00:07:21.459Z,99.51
2023-06-30T00:08:22.128Z,99.76
2023-06-30T00:09:22.164Z,99.86
2023-06-30T00:10:21.646Z,99.96
2023-06-30T00:11:21.534Z,99.86
2023-06-30T00:12:21.440Z,99.66
2023-06-30T00:13:21.363Z,99.30
2023-06-30T00:14:22.089Z,99.10
2023-06-30T00:15:22.049Z,99.30
2023-06-30T00:16:21.636Z,99.30
2023-06-30T00:17:21.569Z,99.40
2023-06-30T00:18:21.375Z,99.71
2023-06-30T00:19:21.519Z,99.80
2023-06-30T00:20:21.984Z,99.85
2023-06-30T00:21:22.479Z,99.99
2023-06-30T00:22:21.988Z,99.99
2023-06-30T00:23:21.429Z,99.99
2023-06-30T00:24:21.317Z,99.99
2023-06-30T00:25:21.247Z,99.99
2023-06-30T00:26:21.964Z,99.99
2023-06-30T00:27:21.901Z,99.99
2023-06-30T00:28:21.910Z,99.99
2023-06-30T00:29:21.352Z,99.99
2023-06-30T00:30:21.258Z,99.99
2023-06-30T00:31:22.147Z,99.99
2023-06-30T00:32:21.609Z,99.99
2023-06-30T00:33:21.845Z,99.99
2023-06-30T00:34:21.824Z,99.99
2023-06-30T00:35:21.296Z,99.99
2023-06-30T00:36:21.187Z,99.99
2023-06-30T00:37:21.096Z,99.99
2023-06-30T00:38:21.771Z,99.99
2023-06-30T00:39:21.786Z,99.99
2023-06-30T00:40:21.765Z,99.99
2023-06-30T00:41:21.224Z,99.99
2023-06-30T00:42:21.142Z,99.99
2023-06-30T00:43:21.090Z,99.99
2023-06-30T00:44:21.741Z,99.99
2023-06-30T00:45:21.796Z,99.99
2023-06-30T00:46:21.797Z,99.99
2023-06-30T00:47:21.196Z,99.99
2023-06-30T00:48:21.080Z,99.99
2023-06-30T00:49:20.958Z,99.99
2023-06-30T00:50:21.689Z,99.99
2023-06-30T00:51:22.133Z,99.99
2023-06-30T00:52:21.632Z,99.99
2023-06-30T00:53:21.086Z,99.99
2023-06-30T00:54:20.996Z,99.99
2023-06-30T00:55:20.898Z,99.99
2023-06-30T00:56:21.591Z,99.99
2023-06-30T00:57:21.531Z,99.99
2023-06-30T00:58:21.564Z,99.99
2023-06-30T00:59:21.060Z,99.99
2023-06-30T01:00:20.954Z,99.99
2023-06-30T01:01:20.845Z,99.99
2023-06-30T01:02:21.294Z,99.99
2023-06-30T01:03:21.681Z,99.99
2023-06-30T01:04:22.602Z,99.99
2023-06-30T01:05:20.963Z,99.99
2023-06-30T01:06:20.869Z,99.99
2023-06-30T01:07:20.781Z,99.99
2023-06-30T01:08:20.676Z,99.99
2023-06-30T01:09:21.431Z,99.99
2023-06-30T01:10:21.431Z,99.99
2023-06-30T01:11:20.913Z,99.99
2023-06-30T01:12:20.802Z,99.99
2023-06-30T01:13:23.654Z,99.99
2023-06-30T01:14:20.620Z,99.99
2023-06-30T01:15:21.368Z,99.99
2023-06-30T01:16:21.437Z,99.99
2023-06-30T01:17:20.855Z,99.99
2023-06-30T01:18:20.742Z,99.99
2023-06-30T01:19:20.676Z,99.99
2023-06-30T01:20:21.077Z,99.99
2023-06-30T01:21:21.793Z,99.99
2023-06-30T01:22:21.298Z,99.99
2023-06-30T01:23:21.277Z,99.99
2023-06-30T01:24:20.673Z,99.99
2023-06-30T01:25:20.588Z,99.99
2023-06-30T01:26:20.587Z,99.99
2023-06-30T01:27:21.973Z,99.99
2023-06-30T01:28:29.531Z,99.99
2023-06-30T01:29:20.740Z,99.99
2023-06-30T01:30:20.618Z,99.99
2023-06-30T01:31:20.567Z,99.99
2023-06-30T01:32:21.216Z,99.99
2023-06-30T01:33:21.860Z,99.99
2023-06-30T01:34:20.775Z,99.99
2023-06-30T01:35:20.646Z,99.99
2023-06-30T01:36:20.557Z,99.99
2023-06-30T01:37:20.462Z,99.99
2023-06-30T01:38:20.396Z,99.99
2023-06-30T01:39:20.775Z,99.99
2023-06-30T01:40:21.085Z,99.99
2023-06-30T01:41:22.668Z,99.99
2023-06-30T01:42:24.456Z,99.99
2023-06-30T01:43:20.416Z,99.99
2023-06-30T01:44:20.323Z,99.99
2023-06-30T01:45:20.739Z,99.99
2023-06-30T01:46:20.691Z,99.99
2023-06-30T01:47:20.581Z,99.99
2023-06-30T01:48:20.425Z,99.99
2023-06-30T01:49:20.330Z,99.99
2023-06-30T01:50:20.752Z,99.99
2023-06-30T01:51:21.008Z,99.99
2023-06-30T01:52:21.841Z,99.99
2023-06-30T01:53:20.458Z,99.99
2023-06-30T01:54:20.372Z,99.99
2023-06-30T01:55:20.277Z,99.99
2023-06-30T01:56:20.170Z,99.99
2023-06-30T01:57:20.604Z,99.99
2023-06-30T01:58:24.344Z,99.99
2023-06-30T01:59:20.403Z,99.99
2023-06-30T02:00:20.303Z,99.99
2023-06-30T02:01:20.251Z,99.99
2023-06-30T02:02:20.185Z,99.99
2023-06-30T02:03:20.600Z,99.99
2023-06-30T02:04:23.594Z,99.99
2023-06-30T02:05:20.335Z,99.99
2023-06-30T02:06:20.225Z,99.99
2023-06-30T02:07:20.193Z,99.99
2023-06-30T02:08:20.043Z,99.99
2023-06-30T02:09:22.150Z,99.99
2023-06-30T02:10:20.732Z,99.99
2023-06-30T02:11:20.275Z,99.99
2023-06-30T02:12:20.171Z,99.99
2023-06-30T02:13:20.068Z,99.99
2023-06-30T02:14:19.972Z,99.99
2023-06-30T02:15:20.417Z,99.99
2023-06-30T02:16:20.708Z,99.99
2023-06-30T02:17:20.696Z,99.99
2023-06-30T02:18:20.105Z,99.99
2023-06-30T02:19:20.008Z,99.99
2023-06-30T02:20:23.894Z,99.99
2023-06-30T02:21:20.634Z,99.99
2023-06-30T02:22:20.627Z,99.99
2023-06-30T02:23:20.628Z,99.99
2023-06-30T02:24:20.040Z,99.99
2023-06-30T02:25:19.953Z,99.99
2023-06-30T02:26:19.854Z,99.99
2023-06-30T02:27:20.571Z,99.99
2023-06-30T02:28:20.540Z,99.99
2023-06-30T02:29:20.547Z,99.99
2023-06-30T02:30:19.983Z,99.99
2023-06-30T02:31:19.892Z,99.99
2023-06-30T02:32:19.797Z,99.99
2023-06-30T02:33:20.196Z,99.99
2023-06-30T02:34:20.473Z,99.99
2023-06-30T02:35:20.549Z,99.99
2023-06-30T02:36:21.982Z,99.99
2023-06-30T02:37:19.813Z,99.99
2023-06-30T02:38:19.713Z,99.99
2023-06-30T02:39:20.420Z,99.99
2023-06-30T02:40:20.407Z,99.99
2023-06-30T02:41:19.942Z,99.99
2023-06-30T02:42:19.845Z,99.99
2023-06-30T02:43:19.747Z,99.99
2023-06-30T02:44:19.654Z,99.99
2023-06-30T02:45:20.360Z,99.99
2023-06-30T02:46:20.424Z,99.99
2023-06-30T02:47:20.342Z,99.99
2023-06-30T02:48:19.798Z,99.99
2023-06-30T02:49:19.684Z,99.99
2023-06-30T02:50:19.590Z,99.99
2023-06-30T02:51:22.996Z,99.99
2023-06-30T02:52:20.260Z,99.99
2023-06-30T02:53:20.258Z,99.99
2023-06-30T02:54:19.712Z,99.99
2023-06-30T02:55:19.621Z,99.99
2023-06-30T02:56:19.530Z,99.99
2023-06-30T02:57:20.227Z,99.99
2023-06-30T02:58:20.225Z,99.99
2023-06-30T02:59:20.199Z,99.99
2023-06-30T03:00:19.650Z,99.99
2023-06-30T03:01:19.658Z,99.99
2023-06-30T03:02:19.608Z,99.99
2023-06-30T03:03:20.161Z,99.99
2023-06-30T03:04:19.780Z,99.99
2023-06-30T03:05:20.122Z,99.99
2023-06-30T03:06:19.588Z,99.99
2023-06-30T03:07:19.514Z,99.99
2023-06-30T03:08:19.394Z,99.99
2023-06-30T03:09:19.813Z,99.99
2023-06-30T03:10:19.733Z,99.99
2023-06-30T03:11:20.050Z,99.99
2023-06-30T03:12:19.515Z,99.99
2023-06-30T03:13:19.458Z,99.99
2023-06-30T03:14:19.352Z,99.99
2023-06-30T03:15:19.991Z,99.99
2023-06-30T03:16:20.003Z,99.99
2023-06-30T03:17:20.015Z,99.99
2023-06-30T03:18:19.456Z,99.99
2023-06-30T03:19:19.354Z,99.99
2023-06-30T03:20:19.282Z,99.99
2023-06-30T03:21:19.178Z,99.99
2023-06-30T03:22:19.901Z,99.99
2023-06-30T03:23:19.903Z,99.99
2023-06-30T03:24:19.393Z,99.99
2023-06-30T03:25:19.297Z,99.99
2023-06-30T03:26:19.196Z,99.99
2023-06-30T03:27:19.101Z,99.99
2023-06-30T03:28:20.541Z,99.99
2023-06-30T03:29:19.442Z,99.99
2023-06-30T03:30:19.327Z,99.99
2023-06-30T03:31:19.284Z,99.99
2023-06-30T03:32:19.160Z,99.99
2023-06-30T03:34:30.525Z,99.99
2023-06-30T03:35:30.440Z,99.99
2023-06-30T03:36:30.351Z,99.99
2023-06-30T03:37:30.414Z,99.99
2023-06-30T03:38:30.313Z,99.99
2023-06-30T03:39:30.341Z,99.99
2023-06-30T03:40:30.335Z,99.99
2023-06-30T03:41:30.305Z,99.99
2023-06-30T03:42:32.981Z,99.99
2023-06-30T03:43:30.368Z,99.99
2023-06-30T03:44:30.257Z,99.99
2023-06-30T03:45:31.009Z,99.99
2023-06-30T03:46:30.579Z,99.99
2023-06-30T03:47:31.211Z,99.99
2023-06-30T03:48:30.230Z,99.99
2023-06-30T03:49:30.237Z,99.99
2023-06-30T03:50:30.468Z,99.99
2023-06-30T03:51:30.223Z,99.99
2023-06-30T03:52:30.208Z,99.99
2023-06-30T03:53:30.219Z,99.99
2023-06-30T03:54:31.988Z,99.99
2023-06-30T03:55:30.113Z,99.99
2023-06-30T03:56:30.140Z,99.99
2023-06-30T03:57:30.111Z,99.99
2023-06-30T03:58:30.109Z,99.99
2023-06-30T03:59:30.100Z,99.99
2023-06-30T04:00:30.056Z,99.99
2023-06-30T04:01:32.930Z,99.99
2023-06-30T04:02:30.157Z,99.99
2023-06-30T04:03:30.245Z,99.99
2023-06-30T04:04:30.496Z,99.99
2023-06-30T04:05:30.040Z,99.99
2023-06-30T04:06:34.869Z,99.99
2023-06-30T04:07:30.143Z,99.99
2023-06-30T04:08:30.166Z,99.99
2023-06-30T04:09:30.513Z,99.99
2023-06-30T04:10:29.986Z,99.99
2023-06-30T04:11:30.248Z,99.99
2023-06-30T04:12:29.943Z,99.99
2023-06-30T04:13:29.957Z,99.99
2023-06-30T04:14:30.275Z,99.99
2023-06-30T04:15:32.767Z,99.99
2023-06-30T04:16:31.834Z,99.99
2023-06-30T04:17:29.942Z,99.99
2023-06-30T04:18:29.850Z,99.99
2023-06-30T04:19:29.857Z,99.99
2023-06-30T04:20:29.903Z,99.99
2023-06-30T04:21:29.894Z,99.99
2023-06-30T04:22:32.562Z,99.99
2023-06-30T04:23:29.807Z,99.99
2023-06-30T04:24:29.827Z,99.99
2023-06-30T04:25:32.607Z,99.99
2023-06-30T04:26:30.104Z,99.99
2023-06-30T04:27:29.801Z,99.99
2023-06-30T04:28:29.771Z,99.99
2023-06-30T04:29:29.762Z,99.99
2023-06-30T04:30:30.088Z,99.99
2023-06-30T04:31:29.757Z,99.99
2023-06-30T04:32:29.784Z,99.99
2023-06-30T04:33:30.064Z,99.99
2023-06-30T04:34:29.705Z,99.99
2023-06-30T04:35:29.718Z,99.99
2023-06-30T04:36:29.701Z,99.99
2023-06-30T04:37:29.665Z,99.99
2023-06-30T04:38:32.757Z,99.99
2023-06-30T04:39:29.622Z,99.99
2023-06-30T04:40:29.634Z,99.99
2023-06-30T04:41:29.667Z,99.99
2023-06-30T04:42:29.625Z,99.99
2023-06-30T04:43:29.601Z,99.99
2023-06-30T04:44:29.637Z,99.99
2023-06-30T04:45:29.570Z,99.99
2023-06-30T04:46:29.954Z,99.99
2023-06-30T04:47:29.561Z,99.99
2023-06-30T04:48:29.528Z,99.99
2023-06-30T04:49:29.835Z,99.99
2023-06-30T04:50:29.499Z,99.99
2023-06-30T04:51:29.520Z,99.99
2023-06-30T04:52:29.819Z,99.99
2023-06-30T04:53:29.497Z,99.99
2023-06-30T04:54:29.484Z,99.99
2023-06-30T04:55:29.717Z,99.99
2023-06-30T04:56:29.718Z,99.99
2023-06-30T04:57:29.728Z,99.99
2023-06-30T04:58:29.460Z,99.99
2023-06-30T04:59:29.719Z,99.99
2023-06-30T05:00:29.704Z,99.99
2023-06-30T05:01:29.478Z,99.99
2023-06-30T05:02:29.738Z,99.99
2023-06-30T05:03:29.386Z,99.99
2023-06-30T05:04:32.142Z,99.99
2023-06-30T05:05:29.642Z,99.99
2023-06-30T05:06:29.632Z,99.99
2023-06-30T05:07:29.736Z,99.99
2023-06-30T05:08:29.652Z,99.99
2023-06-30T05:09:29.315Z,99.99
2023-06-30T05:10:29.727Z,99.99
2023-06-30T05:11:31.357Z,99.99
2023-06-30T05:12:29.614Z,99.99
2023-06-30T05:13:29.614Z,99.99
2023-06-30T05:14:33.080Z,99.99
2023-06-30T05:15:42.244Z,99.99
2023-06-30T05:16:33.617Z,99.99
2023-06-30T05:17:29.755Z,99.99
2023-06-30T05:18:29.217Z,99.99
2023-06-30T05:19:29.172Z,99.99
2023-06-30T05:20:29.225Z,99.99
2023-06-30T05:21:29.152Z,99.99
2023-06-30T05:22:30.956Z,99.99
2023-06-30T05:23:29.117Z,99.99
2023-06-30T05:24:29.439Z,99.99
2023-06-30T05:25:29.156Z,99.99
2023-06-30T05:26:29.397Z,99.99
2023-06-30T05:27:29.896Z,99.99
2023-06-30T05:28:29.091Z,99.99
2023-06-30T05:29:29.535Z,99.99
2023-06-30T05:30:32.815Z,99.99
2023-06-30T05:31:29.115Z,99.99
2023-06-30T05:32:29.068Z,99.99
2023-06-30T05:33:29.021Z,99.99
2023-06-30T05:34:28.994Z,99.99
2023-06-30T05:35:29.883Z,99.99
2023-06-30T05:36:29.001Z,99.99
2023-06-30T05:37:28.970Z,99.99
2023-06-30T05:38:28.989Z,99.99
2023-06-30T05:39:29.835Z,99.99
2023-06-30T05:40:28.942Z,99.99
2023-06-30T05:41:29.281Z,99.99
2023-06-30T05:42:28.883Z,99.99
2023-06-30T05:43:28.939Z,99.99
2023-06-30T05:44:29.132Z,99.99
2023-06-30T05:45:28.868Z,99.99
2023-06-30T05:46:28.971Z,99.99
2023-06-30T05:47:31.594Z,99.99
2023-06-30T05:48:28.844Z,99.99
2023-06-30T05:49:29.195Z,99.99
2023-06-30T05:50:29.167Z,99.99
2023-06-30T05:51:29.144Z,99.99
2023-06-30T05:52:29.360Z,99.99
2023-06-30T05:53:28.776Z,99.99
2023-06-30T05:54:31.582Z,99.99
2023-06-30T05:55:28.810Z,99.99
2023-06-30T05:56:30.544Z,99.99
2023-06-30T05:57:28.761Z,99.99
2023-06-30T05:58:29.139Z,99.99
2023-06-30T05:59:28.802Z,99.99
2023-06-30T06:00:28.810Z,99.99
2023-06-30T06:01:29.062Z,99.99
2023-06-30T06:02:29.357Z,99.99
2023-06-30T06:03:29.144Z,99.99
2023-06-30T06:04:29.841Z,99.99
2023-06-30T06:05:31.578Z,99.99
2023-06-30T06:06:28.975Z,99.99
2023-06-30T06:07:28.694Z,99.99
2023-06-30T06:08:28.623Z,99.99
2023-06-30T06:09:31.360Z,99.99
2023-06-30T06:10:28.983Z,99.99
2023-06-30T06:11:28.555Z,99.99
2023-06-30T06:12:28.589Z,99.99
2023-06-30T06:13:28.984Z,99.99
2023-06-30T06:14:28.900Z,99.99
2023-06-30T06:15:29.412Z,99.99
2023-06-30T06:16:31.528Z,99.99
2023-06-30T06:17:29.539Z,99.99
2023-06-30T06:18:28.828Z,99.99
2023-06-30T06:19:28.479Z,99.99
2023-06-30T06:20:28.458Z,99.99
2023-06-30T06:21:28.823Z,99.99
2023-06-30T06:22:28.490Z,99.99
2023-06-30T06:23:28.684Z,99.99
2023-06-30T06:24:28.794Z,99.99
2023-06-30T06:25:28.461Z,99.99
2023-06-30T06:26:28.712Z,99.99
2023-06-30T06:27:31.188Z,99.99
2023-06-30T06:28:31.201Z,99.99
2023-06-30T06:29:28.745Z,99.99
2023-06-30T06:30:28.380Z,99.99
2023-06-30T06:31:30.223Z,99.99
2023-06-30T06:32:28.495Z,99.99
2023-06-30T06:33:29.564Z,99.99
2023-06-30T06:34:28.638Z,99.99
2023-06-30T06:35:28.326Z,99.99
2023-06-30T06:36:28.752Z,99.99
2023-06-30T06:37:28.330Z,99.99
2023-06-30T06:38:31.124Z,99.99
2023-06-30T06:39:28.390Z,99.99
2023-06-30T06:40:28.594Z,99.99
2023-06-30T06:41:28.246Z,99.99
2023-06-30T06:42:28.326Z,99.99
2023-06-30T06:43:28.241Z,99.99
2023-06-30T06:44:28.529Z,99.99
2023-06-30T06:45:28.235Z,99.99
2023-06-30T06:46:28.578Z,99.99
2023-06-30T06:47:28.225Z,99.99
2023-06-30T06:48:29.060Z,99.99
2023-06-30T06:49:28.127Z,99.99
2023-06-30T06:50:28.535Z,99.99
2023-06-30T06:51:29.252Z,99.99
2023-06-30T06:52:28.165Z,99.99
2023-06-30T06:53:28.119Z,99.99
2023-06-30T06:54:28.124Z,99.99
2023-06-30T06:55:28.077Z,99.99
2023-06-30T06:56:28.085Z,99.99
2023-06-30T06:57:29.165Z,99.99
2023-06-30T06:58:29.078Z,99.99
2023-06-30T06:59:28.019Z,99.99
2023-06-30T07:00:28.436Z,99.99
2023-06-30T07:01:28.228Z,99.99
2023-06-30T07:02:28.251Z,99.99
2023-06-30T07:03:28.295Z,99.99
2023-06-30T07:04:28.188Z,99.99
2023-06-30T07:05:28.895Z,99.99
2023-06-30T07:06:28.803Z,99.99
2023-06-30T07:07:29.961Z,99.99
2023-06-30T07:08:28.777Z,99.99
2023-06-30T07:09:28.048Z,99.99
2023-06-30T07:10:28.215Z,99.99
2023-06-30T07:11:29.867Z,99.99
2023-06-30T07:12:28.752Z,99.99
2023-06-30T07:13:28.240Z,99.99
2023-06-30T07:14:29.071Z,99.87
2023-06-30T07:15:28.993Z,99.97
2023-06-30T07:16:28.925Z,99.99
2023-06-30T07:17:28.815Z,99.99
2023-06-30T07:18:28.738Z,99.99
2023-06-30T07:19:28.584Z,99.99
2023-06-30T07:20:29.027Z,99.99
2023-06-30T07:21:28.159Z,99.99
2023-06-30T07:22:28.212Z,99.92
2023-06-30T07:23:28.705Z,99.62
2023-06-30T07:24:38.222Z,99.62
2023-06-30T07:25:28.789Z,99.98
2023-06-30T07:26:28.962Z,99.27
2023-06-30T07:27:27.922Z,98.40
2023-06-30T07:28:28.776Z,98.56
2023-06-30T07:29:28.648Z,98.86
2023-06-30T07:30:28.546Z,98.92
2023-06-30T07:31:32.493Z,98.05
2023-06-30T07:32:28.946Z,98.41
2023-06-30T07:33:29.665Z,98.51
2023-06-30T07:34:28.755Z,96.69
2023-06-30T07:35:28.575Z,96.19
2023-06-30T07:36:27.885Z,95.98
2023-06-30T07:37:32.350Z,95.89
2023-06-30T07:38:28.853Z,96.09
2023-06-30T07:39:28.706Z,95.18
2023-06-30T07:40:35.285Z,93.10
2023-06-30T07:41:29.626Z,94.11
2023-06-30T07:42:28.421Z,94.98
2023-06-30T07:43:28.321Z,94.27
2023-06-30T07:44:28.014Z,94.78
2023-06-30T07:45:27.888Z,94.47
2023-06-30T07:46:28.939Z,93.36
2023-06-30T07:47:29.984Z,94.07
2023-06-30T07:48:30.017Z,94.57
2023-06-30T07:49:28.268Z,94.37
2023-06-30T07:50:30.203Z,93.96
2023-06-30T07:51:30.941Z,94.63
2023-06-30T07:52:28.520Z,94.32
2023-06-30T07:53:28.383Z,93.92
2023-06-30T07:54:29.902Z,93.32
2023-06-30T07:55:28.223Z,93.82
2023-06-30T07:56:28.611Z,93.57
2023-06-30T07:57:28.516Z,93.17
2023-06-30T07:58:28.415Z,92.16
2023-06-30T07:59:28.348Z,90.45
2023-06-30T08:00:29.897Z,89.84
2023-06-30T08:01:28.127Z,89.94
2023-06-30T08:02:28.092Z,90.00
2023-06-30T08:03:28.705Z,90.30
2023-06-30T08:04:27.476Z,91.01
2023-06-30T08:05:28.392Z,90.91
2023-06-30T08:06:28.179Z,90.26
2023-06-30T08:07:47.948Z,89.15
2023-06-30T08:08:28.996Z,87.34
2023-06-30T08:09:28.237Z,87.18
2023-06-30T08:10:28.288Z,88.45
2023-06-30T08:11:27.589Z,87.54
2023-06-30T08:12:28.098Z,82.84
2023-06-30T08:13:28.043Z,84.05
2023-06-30T08:14:27.730Z,86.16
2023-06-30T08:15:29.230Z,86.47
2023-06-30T08:16:28.009Z,86.63
2023-06-30T08:17:37.692Z,84.91
2023-06-30T08:18:35.095Z,87.23
2023-06-30T08:19:48.382Z,85.72
2023-06-30T08:20:28.966Z,84.61
2023-06-30T08:21:27.557Z,86.63
2023-06-30T08:22:28.162Z,86.53
2023-06-30T08:23:30.767Z,86.63
2023-06-30T08:24:27.973Z,86.69
2023-06-30T08:25:27.878Z,85.82
2023-06-30T08:26:27.573Z,83.91
2023-06-30T08:27:28.202Z,84.61
2023-06-30T08:28:28.118Z,83.30
2023-06-30T08:29:28.002Z,81.38
2023-06-30T08:30:28.021Z,82.59
2023-06-30T08:31:27.872Z,78.26
2023-06-30T08:32:27.783Z,79.57
2023-06-30T08:33:39.733Z,76.07
2023-06-30T08:34:29.056Z,78.59
2023-06-30T08:35:27.943Z,80.68
2023-06-30T08:36:27.844Z,81.08
2023-06-30T08:37:27.342Z,76.54
2023-06-30T08:38:26.961Z,77.51
2023-06-30T08:39:28.107Z,77.01
2023-06-30T08:40:27.980Z,78.12
2023-06-30T08:41:27.876Z,77.62
2023-06-30T08:42:27.779Z,77.62
2023-06-30T08:43:27.686Z,75.80
2023-06-30T08:44:27.596Z,76.61
2023-06-30T08:45:27.997Z,76.51
2023-06-30T08:46:27.936Z,76.61
2023-06-30T08:47:27.839Z,77.11
2023-06-30T08:48:27.719Z,76.57
2023-06-30T08:49:27.653Z,75.26
2023-06-30T08:50:27.567Z,75.02
2023-06-30T08:51:27.967Z,74.82
2023-06-30T08:52:27.845Z,73.52
2023-06-30T08:53:27.802Z,73.52
2023-06-30T08:54:27.698Z,75.93
2023-06-30T08:55:27.565Z,77.55
2023-06-30T08:56:27.483Z,75.02
2023-06-30T08:57:27.267Z,76.90
2023-06-30T08:58:27.796Z,76.50
2023-06-30T08:59:27.681Z,76.56
2023-06-30T09:00:27.631Z,75.19
2023-06-30T09:01:26.773Z,77.67
2023-06-30T09:02:27.569Z,76.16
2023-06-30T09:03:28.185Z,74.32
2023-06-30T09:04:28.053Z,73.91
2023-06-30T09:05:27.624Z,73.21
2023-06-30T09:06:27.529Z,72.54
2023-06-30T09:07:28.671Z,76.87
2023-06-30T09:08:27.430Z,75.90
2023-06-30T09:09:28.753Z,77.50
2023-06-30T09:10:27.676Z,75.79
2023-06-30T09:11:27.567Z,76.10
2023-06-30T09:12:27.467Z,75.19
2023-06-30T09:13:26.596Z,75.90
2023-06-30T09:14:27.268Z,75.19
2023-06-30T09:15:27.693Z,73.08
2023-06-30T09:16:27.701Z,73.98
2023-06-30T09:17:27.563Z,73.58
2023-06-30T09:18:29.413Z,73.38
2023-06-30T09:19:29.400Z,73.14
2023-06-30T09:20:27.205Z,73.44
2023-06-30T09:21:27.830Z,72.81
2023-06-30T09:22:53.720Z,72.20
2023-06-30T09:23:29.337Z,68.88
2023-06-30T09:24:31.209Z,70.19
2023-06-30T09:25:27.441Z,68.88
2023-06-30T09:26:27.139Z,67.94
2023-06-30T09:27:27.556Z,67.85
2023-06-30T09:28:27.464Z,66.74
2023-06-30T09:29:27.361Z,68.41
2023-06-30T09:30:27.266Z,68.12
2023-06-30T09:31:27.212Z,67.82
2023-06-30T09:32:27.105Z,69.22
2023-06-30T09:33:27.552Z,70.23
2023-06-30T09:34:27.391Z,69.72
2023-06-30T09:35:26.672Z,70.23
2023-06-30T09:36:27.200Z,69.92
2023-06-30T09:37:27.109Z,68.21
2023-06-30T09:38:27.009Z,66.51
2023-06-30T09:39:26.873Z,67.01
2023-06-30T09:40:27.334Z,67.21
2023-06-30T09:41:28.167Z,68.08
2023-06-30T09:42:27.152Z,68.59
2023-06-30T09:43:27.066Z,68.68
2023-06-30T09:44:26.983Z,65.77
2023-06-30T09:45:27.369Z,66.58
2023-06-30T09:46:27.332Z,65.17
2023-06-30T09:47:27.219Z,65.37
2023-06-30T09:48:27.075Z,64.57
2023-06-30T09:49:27.020Z,63.93
2023-06-30T09:50:26.880Z,64.84
2023-06-30T09:51:27.296Z,63.03
2023-06-30T09:52:27.216Z,63.70
2023-06-30T09:53:27.127Z,62.50
2023-06-30T09:54:43.906Z,62.10
2023-06-30T09:55:27.936Z,61.72
2023-06-30T09:56:27.817Z,61.70
2023-06-30T09:57:26.858Z,61.80
2023-06-30T09:58:27.468Z,61.13
2023-06-30T09:59:27.075Z,62.13
2023-06-30T10:00:36.324Z,63.00
2023-06-30T10:01:27.918Z,61.80
2023-06-30T10:02:26.857Z,61.70
2023-06-30T10:03:26.885Z,60.39
2023-06-30T10:04:27.071Z,60.60
2023-06-30T10:05:26.975Z,63.31
2023-06-30T10:06:27.454Z,62.80
2023-06-30T10:07:26.860Z,61.19
2023-06-30T10:08:26.689Z,59.89
2023-06-30T10:09:27.388Z,60.32
2023-06-30T10:10:27.079Z,60.22
2023-06-30T10:11:26.948Z,59.92
2023-06-30T10:12:26.818Z,61.00
2023-06-30T10:13:26.724Z,61.72
2023-06-30T10:14:26.620Z,62.20
2023-06-30T10:15:26.527Z,61.40
2023-06-30T10:16:26.950Z,60.66
2023-06-30T10:17:26.939Z,60.77
2023-06-30T10:18:27.933Z,60.66
2023-06-30T10:19:26.657Z,59.94
2023-06-30T10:20:38.020Z,58.23
2023-06-30T10:21:28.682Z,57.96
2023-06-30T10:22:26.879Z,59.03
2023-06-30T10:23:26.805Z,58.23
2023-06-30T10:24:26.691Z,58.33
2023-06-30T10:25:26.602Z,59.46
2023-06-30T10:26:26.505Z,58.73
2023-06-30T10:27:26.447Z,59.11
2023-06-30T10:28:27.148Z,59.38
2023-06-30T10:29:26.718Z,58.58
2023-06-30T10:30:26.635Z,58.37
2023-06-30T10:31:26.540Z,57.48
2023-06-30T10:32:27.635Z,58.70
2023-06-30T10:33:27.702Z,59.70
2023-06-30T10:34:26.757Z,58.37
2023-06-30T10:35:26.658Z,56.48
2023-06-30T10:36:26.568Z,54.77
2023-06-30T10:37:26.485Z,56.37
2023-06-30T10:38:26.372Z,55.87
2023-06-30T10:39:26.273Z,56.05
2023-06-30T10:40:26.702Z,54.74
2023-06-30T10:41:26.599Z,55.44
2023-06-30T10:42:26.506Z,54.74
2023-06-30T10:43:26.400Z,56.17
2023-06-30T10:44:27.546Z,56.35
2023-06-30T10:45:26.208Z,54.35
2023-06-30T10:46:28.689Z,56.02
2023-06-30T10:47:26.586Z,56.12
2023-06-30T10:48:26.909Z,53.52
2023-06-30T10:49:26.335Z,52.82
2023-06-30T10:50:26.266Z,55.40
2023-06-30T10:51:26.170Z,50.99
2023-06-30T10:52:26.851Z,50.62
2023-06-30T10:53:26.474Z,51.14
2023-06-30T10:54:26.443Z,52.17
2023-06-30T10:55:26.279Z,53.14
2023-06-30T10:56:26.204Z,53.14
2023-06-30T10:57:26.156Z,53.34
2023-06-30T10:58:26.497Z,53.47
2023-06-30T10:59:26.801Z,53.24
2023-06-30T11:00:26.794Z,53.24
2023-06-30T11:01:26.207Z,52.44
2023-06-30T11:02:26.201Z,52.17
2023-06-30T11:03:26.108Z,52.07
2023-06-30T11:04:26.864Z,52.37
2023-06-30T11:05:26.722Z,52.37
2023-06-30T11:06:26.725Z,53.37
2023-06-30T11:07:26.242Z,53.07
2023-06-30T11:08:26.207Z,53.64
2023-06-30T11:09:25.954Z,52.55
2023-06-30T11:10:27.408Z,53.14
2023-06-30T11:11:26.629Z,54.72
2023-06-30T11:12:26.633Z,52.02
2023-06-30T11:13:26.097Z,53.92
2023-06-30T11:14:26.001Z,52.62
2023-06-30T11:15:25.908Z,50.92
2023-06-30T11:16:26.614Z,51.62
2023-06-30T11:17:26.657Z,50.82
2023-06-30T11:18:26.640Z,50.32
2023-06-30T11:19:26.053Z,51.12
2023-06-30T11:20:25.942Z,50.22
2023-06-30T11:21:27.492Z,51.62
2023-06-30T11:22:26.899Z,49.72
2023-06-30T11:23:28.212Z,51.22
2023-06-30T11:24:26.510Z,49.02
2023-06-30T11:25:25.963Z,50.52
2023-06-30T11:26:25.871Z,50.42
2023-06-30T11:27:25.796Z,50.82
2023-06-30T11:28:26.210Z,50.89
2023-06-30T11:29:26.529Z,50.79
2023-06-30T11:30:26.476Z,51.17
2023-06-30T11:31:25.933Z,50.27
2023-06-30T11:32:25.868Z,49.07
2023-06-30T11:33:26.903Z,48.99
2023-06-30T11:34:26.123Z,49.97
2023-06-30T11:35:26.403Z,50.87
2023-06-30T11:36:26.370Z,50.29
2023-06-30T11:37:25.833Z,51.29
2023-06-30T11:38:25.737Z,49.91
2023-06-30T11:39:25.653Z,48.22
2023-06-30T11:40:26.341Z,49.11
2023-06-30T11:41:26.311Z,48.11
2023-06-30T11:42:25.874Z,48.82
2023-06-30T11:43:25.769Z,49.41
2023-06-30T11:44:25.683Z,49.41
2023-06-30T11:45:25.568Z,49.11
2023-06-30T11:46:26.273Z,48.32
2023-06-30T11:47:26.286Z,48.02
2023-06-30T11:48:26.223Z,46.12
2023-06-30T11:49:25.787Z,48.02
2023-06-30T11:50:25.623Z,49.29
2023-06-30T11:51:25.507Z,48.60
2023-06-30T11:52:26.183Z,48.60
2023-06-30T11:53:25.927Z,48.79
2023-06-30T11:54:25.762Z,49.49
2023-06-30T11:55:25.654Z,49.77
2023-06-30T11:56:25.552Z,49.77
2023-06-30T11:57:25.454Z,47.85
2023-06-30T11:58:25.374Z,48.45
2023-06-30T11:59:26.136Z,48.75
2023-06-30T12:00:26.115Z,48.05
2023-06-30T12:01:25.603Z,49.25
2023-06-30T12:02:25.588Z,50.04
2023-06-30T12:03:25.427Z,47.72
2023-06-30T12:04:26.135Z,46.23
2023-06-30T12:05:26.068Z,46.03
2023-06-30T12:06:26.026Z,46.65
2023-06-30T12:07:26.069Z,47.25
2023-06-30T12:08:25.502Z,46.03
2023-06-30T12:09:25.320Z,45.93
2023-06-30T12:10:25.222Z,46.83
2023-06-30T12:11:25.959Z,46.23
2023-06-30T12:12:25.956Z,45.83
2023-06-30T12:13:25.951Z,48.80
2023-06-30T12:14:26.161Z,45.81
2023-06-30T12:15:25.955Z,45.98
2023-06-30T12:16:25.216Z,44.61
2023-06-30T12:17:25.932Z,44.33
2023-06-30T12:18:25.872Z,45.23
2023-06-30T12:19:25.850Z,45.33
2023-06-30T12:20:26.810Z,46.31
2023-06-30T12:21:25.195Z,44.03
2023-06-30T12:22:25.098Z,45.03
2023-06-30T12:23:25.327Z,42.63
2023-06-30T12:24:25.882Z,42.73
2023-06-30T12:25:25.320Z,44.83
2023-06-30T12:26:26.479Z,46.43
2023-06-30T12:27:25.129Z,47.00
2023-06-30T12:28:25.037Z,46.16
2023-06-30T12:29:25.764Z,45.47
2023-06-30T12:30:25.773Z,45.66
2023-06-30T12:31:25.803Z,44.87
2023-06-30T12:32:25.195Z,46.36
2023-06-30T12:33:25.084Z,45.56
2023-06-30T12:34:25.043Z,46.73
2023-06-30T12:35:25.727Z,43.17
2023-06-30T12:36:25.714Z,43.31
2023-06-30T12:37:25.700Z,44.01
2023-06-30T12:38:25.108Z,43.01
2023-06-30T12:39:25.066Z,42.83
2023-06-30T12:40:26.888Z,43.73
2023-06-30T12:41:25.742Z,44.65
2023-06-30T12:42:25.597Z,45.25
2023-06-30T12:43:25.648Z,44.97
2023-06-30T12:44:25.043Z,45.50
2023-06-30T12:45:24.939Z,46.59
2023-06-30T12:46:24.894Z,46.67
2023-06-30T12:47:25.627Z,47.85
2023-06-30T12:48:25.560Z,45.33
2023-06-30T12:49:25.570Z,45.73
2023-06-30T12:50:24.973Z,46.13
2023-06-30T12:51:24.991Z,46.41
2023-06-30T12:52:24.791Z,45.71
2023-06-30T12:53:25.221Z,46.31